^ Back to Top

Niederschlagsradar DWD

© Deutscher Wetterdienst, Offenbach (DWD)

Aviation WX

[source: ADDS]
METAR
EDDN 272020Z 11003KT 070V130 CAVOK 13/12 Q1028 =
TAF
TAF EDDN 271700Z 2718/2818 VRB03KT 9999 FEW045 PROB30 TEMPO 2802/2806 2000 BCFG BECMG 2806/2808 24005KT BECMG 2811/2813 26010KT =
SR / SS: 05:10 / 17:01 UTC (ETHR 2016-09-27)

Statistiken

Besucher
40
Beiträge
36
Weblinks
10
Anzahl Beitragshäufigkeit
57176